Startpagina
METAR-TAF:

METAR-TAF

Vliegvelden :

Kinshasa, Congo

Luchthaven N'djili

breedte: 04-23S, lengte: 015-26E, hoogte: 309 m

METAR: ontbreekt

Tijdstip: 05:09 (04:09 UTC)

Verwachting

Dit bericht is 5 uur en het 9 minuten geleden gemaakt, om 23:00 UTC
Verwachting geldig van 24 om 00 UTC tot 25 om 06 UTC
Wind 6 kt uit het zuidwesten
Zicht: 8000 m
Gebroken wolken op 1600 ft
Wijzigt naar
van 24 om 09 UTC tot 24 om 11 UTC
Verspreide wolken op 2200 ft
Weinig wolken op 3000 ft, Cumulonimbus.
Tijdelijke
van 24 om 13 UTC tot 24 om 20 UTC
onweer
Kans 30%
van 24 om 15 UTC tot 24 om 19 UTC
Zicht: 3000 m
onweer, regen
Wijzigt naar
van 24 om 22 UTC tot 25 om 01 UTC
Weinig wolken op 1600 ft

TAF: FZAA 232300Z 2400/2506 22006KT 8000 BKN016 BECMG 2409/2411 SCT022 FEW030CB TEMPO 2413/2420 TS PROB30 2415/2419 3000 TSRA BECMG 2422/2501 FEW016

Waarnemingen en weersverwachtingen van meer dan 4000 vliegvelden (METAR en TAF).

De beschikbare stations zijn de gele en rode punten op de kaart.

Ga met uw muis naar het station om de naam te zien.

Klik dan om waarnemingen en weersverwachtingen te zien.

kaart wijzigen: klik op de groene knoppen met een zwart kruis om in te zoomen, op de groene knop met een streepje om uit te zoomen of op de groene pijlen voor aangrenzende kaarten.


METAR-TAF: